createdAt,value
2023-05-10T00:02:07.582Z,98569.13
2023-05-10T00:07:12.179Z,98564.72
2023-05-10T00:12:15.114Z,98567.38
2023-05-10T00:17:17.829Z,98567.41
2023-05-10T00:22:21.912Z,98561.22
2023-05-10T00:27:24.589Z,98558.75
2023-05-10T00:32:27.377Z,98563.88
2023-05-10T00:37:31.367Z,98560.94
2023-05-10T00:42:34.309Z,98560.34
2023-05-10T00:47:37.345Z,98555.56
2023-05-10T00:52:41.387Z,98554.75
2023-05-10T00:57:44.245Z,98563.00
2023-05-10T01:02:48.039Z,98553.78
2023-05-10T01:07:52.215Z,98558.19
2023-05-10T01:12:54.919Z,98565.13
2023-05-10T01:17:57.964Z,98561.31
2023-05-10T01:23:33.361Z,98561.91
2023-05-10T01:29:00.254Z,98559.88
2023-05-10T01:34:09.304Z,98560.03
2023-05-10T01:39:17.984Z,98558.63
2023-05-10T01:44:26.776Z,98560.28
2023-05-10T01:49:33.075Z,98565.25
2023-05-10T01:54:36.507Z,98575.19
2023-05-10T01:59:41.640Z,98570.09
2023-05-10T02:04:47.162Z,98571.88
2023-05-10T02:09:50.011Z,98568.94
2023-05-10T02:14:53.626Z,98581.28
2023-05-10T02:19:58.507Z,98587.16
2023-05-10T02:25:01.829Z,98576.53
2023-05-10T02:30:05.297Z,98592.38
2023-05-10T02:35:10.707Z,98598.19
2023-05-10T02:40:14.066Z,98599.81
2023-05-10T02:45:19.769Z,98593.47
2023-05-10T02:50:24.287Z,98608.38
2023-05-10T02:55:29.044Z,98610.66
2023-05-10T03:00:31.855Z,98606.53
2023-05-10T03:05:35.848Z,98610.50
2023-05-10T03:10:43.797Z,98611.13
2023-05-10T03:15:51.008Z,98608.69
2023-05-10T03:20:59.575Z,98613.47
2023-05-10T03:26:03.167Z,98613.72
2023-05-10T03:31:07.913Z,98624.19
2023-05-10T03:36:12.325Z,98625.25
2023-05-10T03:41:15.037Z,98629.63
2023-05-10T03:46:17.932Z,98637.44
2023-05-10T03:51:23.168Z,98631.91
2023-05-10T03:56:25.889Z,98637.28
2023-05-10T04:01:28.560Z,98635.63
2023-05-10T04:06:32.840Z,98643.88
2023-05-10T04:11:35.778Z,98643.50
2023-05-10T04:16:38.477Z,98646.75
2023-05-10T04:21:42.431Z,98647.22
2023-05-10T04:26:45.078Z,98646.00
2023-05-10T04:31:47.714Z,98632.69
2023-05-10T04:36:51.703Z,98641.63
2023-05-10T04:41:54.415Z,98646.19
2023-05-10T04:46:57.038Z,98650.91
2023-05-10T04:52:01.064Z,98645.56
2023-05-10T04:57:03.648Z,98653.97
2023-05-10T05:02:07.306Z,98656.91
2023-05-10T05:07:11.335Z,98667.66
2023-05-10T05:12:15.123Z,98660.38
2023-05-10T05:17:17.904Z,98672.81
2023-05-10T05:22:28.146Z,98673.19
2023-05-10T05:27:31.276Z,98682.28
2023-05-10T05:32:33.955Z,98684.69
2023-05-10T05:37:38.359Z,98690.53
2023-05-10T05:42:40.965Z,98698.75
2023-05-10T05:47:43.746Z,98697.91
2023-05-10T05:52:47.724Z,98708.66
2023-05-10T05:57:50.305Z,98703.44
2023-05-10T06:02:53.202Z,98714.28
2023-05-10T06:07:57.379Z,98721.72
2023-05-10T06:13:00.002Z,98726.63
2023-05-10T06:18:02.748Z,98733.31
2023-05-10T06:23:34.796Z,98734.72
2023-05-10T06:28:40.128Z,98743.69
2023-05-10T06:33:45.034Z,98751.53
2023-05-10T06:38:49.474Z,98753.19
2023-05-10T06:43:52.168Z,98751.28
2023-05-10T06:48:54.804Z,98765.94
2023-05-10T06:54:03.213Z,98760.03
2023-05-10T06:59:05.941Z,98774.25
2023-05-10T07:04:08.676Z,98768.06
2023-05-10T07:09:12.583Z,98777.94
2023-05-10T07:14:15.208Z,98773.84
2023-05-10T07:19:17.772Z,98770.50
2023-05-10T07:24:24.309Z,98779.38
2023-05-10T07:29:27.138Z,98778.34
2023-05-10T07:34:31.034Z,98781.97
2023-05-10T07:39:35.052Z,98787.41
2023-05-10T07:44:37.677Z,98788.66
2023-05-10T07:49:40.290Z,98798.56
2023-05-10T07:54:45.491Z,98791.97
2023-05-10T07:59:48.415Z,98791.34
2023-05-10T08:04:50.986Z,98789.44
2023-05-10T08:09:54.938Z,98790.47
2023-05-10T08:14:57.951Z,98802.41
2023-05-10T08:20:00.558Z,98803.03
2023-05-10T08:25:04.714Z,98804.88
2023-05-10T08:30:08.812Z,98812.25
2023-05-10T08:35:11.432Z,98804.22
2023-05-10T08:40:16.437Z,98813.53
2023-05-10T08:45:20.182Z,98822.31
2023-05-10T08:50:23.790Z,98821.72
2023-05-10T08:55:27.826Z,98830.59
2023-05-10T09:00:30.967Z,98839.25
2023-05-10T09:05:33.737Z,98851.25
2023-05-10T09:10:37.767Z,98847.94
2023-05-10T09:15:40.388Z,98846.41
2023-05-10T09:20:43.129Z,98859.81
2023-05-10T09:25:47.198Z,98863.72
2023-05-10T09:30:56.353Z,98859.56
2023-05-10T09:36:08.736Z,98863.84
2023-05-10T09:41:19.335Z,98862.59
2023-05-10T09:46:22.015Z,98872.97
2023-05-10T09:51:26.123Z,98870.56
2023-05-10T09:56:36.869Z,98879.19
2023-05-10T10:01:39.860Z,98870.94
2023-05-10T10:06:43.063Z,98874.84
2023-05-10T10:11:47.003Z,98871.50
2023-05-10T10:17:05.566Z,98878.72
2023-05-10T10:22:11.712Z,98881.78
2023-05-10T10:27:23.760Z,98889.81
2023-05-10T10:32:32.117Z,98891.78
2023-05-10T10:37:45.032Z,98892.66
2023-05-10T10:42:50.758Z,98896.69
2023-05-10T10:48:10.854Z,98901.03
2023-05-10T10:53:13.903Z,98903.66
2023-05-10T10:58:33.581Z,98898.91
2023-05-10T11:03:36.286Z,98899.88
2023-05-10T11:08:45.394Z,98900.53
2023-05-10T11:13:51.315Z,98904.81
2023-05-10T11:18:56.120Z,98896.22
2023-05-10T11:24:00.150Z,98905.00
2023-05-10T11:29:05.849Z,98912.69
2023-05-10T11:34:08.541Z,98916.31
2023-05-10T11:39:12.366Z,98925.97
2023-05-10T11:44:16.414Z,98917.78
2023-05-10T11:49:19.956Z,98925.94
2023-05-10T11:54:22.612Z,98931.09
2023-05-10T11:59:27.213Z,98931.00
2023-05-10T12:04:30.341Z,98934.28
2023-05-10T12:09:43.427Z,98932.50
2023-05-10T12:14:50.961Z,98926.91
2023-05-10T12:19:53.650Z,98926.25
2023-05-10T12:24:56.340Z,98926.91
2023-05-10T12:30:02.346Z,98941.41
2023-05-10T12:35:05.978Z,98945.38
2023-05-10T12:40:10.460Z,98953.06
2023-05-10T12:45:14.625Z,98953.72
2023-05-10T12:50:17.505Z,98963.22
2023-05-10T12:55:20.207Z,98960.91
2023-05-10T13:00:24.261Z,98961.94
2023-05-10T13:05:26.950Z,98962.91
2023-05-10T13:10:31.126Z,98972.00
2023-05-10T13:15:35.193Z,98973.06
2023-05-10T13:20:37.893Z,98968.81
2023-05-10T13:25:40.581Z,98964.47
2023-05-10T13:30:44.820Z,98974.44
2023-05-10T13:35:47.470Z,98965.34
2023-05-10T13:40:53.339Z,98974.91
2023-05-10T13:45:57.720Z,98973.44
2023-05-10T13:51:00.400Z,98972.88
2023-05-10T13:56:03.815Z,98970.69
2023-05-10T14:01:07.831Z,98965.69
2023-05-10T14:06:10.457Z,98967.38
2023-05-10T14:11:13.797Z,98955.72
2023-05-10T14:16:17.799Z,98957.75
2023-05-10T14:21:20.467Z,98965.25
2023-05-10T14:26:23.124Z,98953.09
2023-05-10T14:31:27.318Z,98952.41
2023-05-10T14:36:30.056Z,98954.94
2023-05-10T14:41:32.719Z,98957.88
2023-05-10T14:46:36.790Z,98959.56
2023-05-10T14:51:39.463Z,98954.97
2023-05-10T14:56:42.424Z,98953.47
2023-05-10T15:01:46.595Z,98948.59
2023-05-10T15:06:49.655Z,98955.09
2023-05-10T15:11:52.484Z,98948.81
2023-05-10T15:16:56.467Z,98951.34
2023-05-10T15:21:59.101Z,98954.53
2023-05-10T15:27:02.014Z,98955.78
2023-05-10T15:32:08.000Z,98958.47
2023-05-10T15:37:10.779Z,98956.63
2023-05-10T15:42:13.899Z,98954.94
2023-05-10T15:47:18.045Z,98955.59
2023-05-10T15:52:21.017Z,98964.47
2023-05-10T15:57:23.607Z,98963.00
2023-05-10T16:02:27.828Z,98962.84
2023-05-10T16:07:30.527Z,98960.16
2023-05-10T16:12:33.156Z,98973.88
2023-05-10T16:17:37.482Z,98981.13
2023-05-10T16:22:40.531Z,98977.09
2023-05-10T16:28:17.826Z,98982.41
2023-05-10T17:13:10.821Z,99009.47
2023-05-10T17:18:19.258Z,99020.56
2023-05-10T17:23:27.918Z,99028.28
2023-05-10T18:01:15.314Z,99059.06
2023-05-10T18:06:18.000Z,99060.94
2023-05-10T18:11:21.781Z,99056.63
2023-05-10T18:16:25.902Z,99061.22
2023-05-10T18:21:28.903Z,99068.84
2023-05-10T18:26:31.548Z,99081.03
2023-05-10T18:31:35.560Z,99068.03
2023-05-10T18:36:38.295Z,99078.59
2023-05-10T18:41:40.950Z,99072.00
2023-05-10T18:46:45.232Z,99078.38
2023-05-10T18:51:51.280Z,99076.56
2023-05-10T18:56:58.566Z,99073.63
2023-05-10T19:02:02.629Z,99085.03
2023-05-10T19:07:05.569Z,99075.72
2023-05-10T19:12:08.813Z,99086.47
2023-05-10T19:17:13.257Z,99092.25
2023-05-10T19:22:15.953Z,99086.06
2023-05-10T19:27:18.711Z,99091.84
2023-05-10T19:32:24.092Z,99087.34
2023-05-10T19:37:27.123Z,99099.31
2023-05-10T19:42:29.782Z,99097.44
2023-05-10T19:47:35.181Z,99108.97
2023-05-10T19:52:38.118Z,99109.63
2023-05-10T19:57:40.873Z,99109.41
2023-05-10T20:02:44.918Z,99115.38
2023-05-10T20:07:47.603Z,99121.16
2023-05-10T20:12:52.396Z,99124.06
2023-05-10T20:17:56.822Z,99116.41
2023-05-10T20:22:59.443Z,99113.72
2023-05-10T20:28:02.382Z,99120.75
2023-05-10T20:33:06.729Z,99112.88
2023-05-10T20:38:09.418Z,99121.53
2023-05-10T20:43:12.138Z,99114.53
2023-05-10T20:48:16.654Z,99110.38
2023-05-10T20:53:19.360Z,99104.63
2023-05-10T20:58:26.279Z,99101.72
2023-05-10T21:03:31.006Z,99105.84
2023-05-10T21:08:33.637Z,99099.66
2023-05-10T21:13:36.272Z,99114.09
2023-05-10T21:18:40.272Z,99098.63
2023-05-10T21:23:42.928Z,99102.13
2023-05-10T21:28:45.788Z,99104.19
2023-05-10T21:33:49.841Z,99114.91
2023-05-10T21:38:52.537Z,99109.94
2023-05-10T21:43:56.220Z,99108.69
2023-05-10T21:49:00.232Z,99113.66
2023-05-10T21:54:02.872Z,99112.59
2023-05-10T21:59:05.542Z,99109.94
2023-05-10T22:04:09.541Z,99115.06
2023-05-10T22:09:12.186Z,99112.97
2023-05-10T22:14:14.880Z,99114.66
2023-05-10T22:19:18.890Z,99125.94
2023-05-10T22:24:21.534Z,99124.72
2023-05-10T22:29:24.376Z,99119.75
2023-05-10T22:34:28.593Z,99124.91
2023-05-10T22:39:31.237Z,99133.53
2023-05-10T22:44:33.922Z,99129.19
2023-05-10T22:49:38.614Z,99132.91
2023-05-10T22:54:41.369Z,99132.28
2023-05-10T23:00:33.798Z,99139.50
2023-05-10T23:05:37.907Z,99146.72
2023-05-10T23:10:40.545Z,99139.69
2023-05-10T23:15:43.540Z,99136.16
2023-05-10T23:20:47.561Z,99124.19
2023-05-10T23:25:50.295Z,99135.22
2023-05-10T23:30:55.893Z,99139.22
2023-05-10T23:35:59.813Z,99143.13
2023-05-10T23:41:02.405Z,99135.22
2023-05-10T23:46:06.455Z,99136.03
2023-05-10T23:51:10.505Z,99129.22
2023-05-10T23:56:13.175Z,99125.78
